createdAt,value
2018-07-12T00:08:03.520Z,12.7
2018-07-12T00:18:02.750Z,12.6
2018-07-12T00:28:01.986Z,12.8
2018-07-12T00:38:01.217Z,13.1
2018-07-12T00:48:00.500Z,12.6
2018-07-12T00:57:59.683Z,13
2018-07-12T01:07:58.917Z,12.4
2018-07-12T01:17:58.150Z,12.6
2018-07-12T01:27:57.385Z,12.6
2018-07-12T01:37:56.616Z,12.7
2018-07-12T01:47:55.846Z,12.5
2018-07-12T01:57:55.083Z,13.1
2018-07-12T02:07:54.310Z,13
2018-07-12T02:17:53.547Z,12.8
2018-07-12T02:27:52.776Z,12.7
2018-07-12T02:37:52.010Z,13.1
2018-07-12T02:47:51.248Z,12.5
2018-07-12T02:57:50.473Z,12.5
2018-07-12T03:07:49.711Z,12.6
2018-07-12T03:17:48.951Z,12.6
2018-07-12T03:27:48.179Z,12.5
2018-07-12T03:37:47.410Z,12.9
2018-07-12T03:47:46.643Z,13.5
2018-07-12T03:57:45.877Z,14
2018-07-12T04:07:45.111Z,14.5
2018-07-12T04:17:44.351Z,14.5
2018-07-12T04:27:43.580Z,14.4
2018-07-12T04:37:42.820Z,14.1
2018-07-12T04:47:42.057Z,14.3
2018-07-12T04:57:41.291Z,13.8
2018-07-12T05:07:40.523Z,14.5
2018-07-12T05:17:39.749Z,14.1
2018-07-12T05:27:38.982Z,14.2
2018-07-12T05:37:38.222Z,14.2
2018-07-12T05:47:37.456Z,14
2018-07-12T05:57:36.806Z,14
2018-07-12T06:07:35.915Z,14.4
2018-07-12T06:17:35.147Z,14.2
2018-07-12T06:27:34.382Z,14.5
2018-07-12T06:37:33.622Z,13.9
2018-07-12T06:47:32.848Z,14.2
2018-07-12T06:57:32.087Z,14.6
2018-07-12T07:07:31.314Z,14
2018-07-12T07:17:30.549Z,14.6
2018-07-12T07:27:29.794Z,14.4
2018-07-12T07:37:29.018Z,14.3
2018-07-12T07:47:28.248Z,14.1
2018-07-12T07:57:27.494Z,14.6
2018-07-12T08:07:26.713Z,14.3
2018-07-12T08:17:25.947Z,14.6
2018-07-12T08:27:25.178Z,14
2018-07-12T08:37:24.410Z,14.7
2018-07-12T08:47:23.647Z,14.3
2018-07-12T08:57:22.879Z,14.6
2018-07-12T09:07:22.111Z,14.1
2018-07-12T09:17:21.344Z,14.1
2018-07-12T09:27:20.578Z,14
2018-07-12T09:37:19.811Z,14.2
2018-07-12T09:47:19.088Z,14.1
2018-07-12T09:57:18.277Z,13.8
2018-07-12T10:07:17.513Z,13.9
2018-07-12T10:17:16.752Z,14.3
2018-07-12T10:27:15.983Z,13.8
2018-07-12T10:37:15.219Z,13.9
2018-07-12T10:47:14.458Z,14.5
2018-07-12T10:57:13.686Z,14
2018-07-12T11:07:12.920Z,13.9
2018-07-12T11:17:12.153Z,13.8
2018-07-12T11:27:11.389Z,13.8
2018-07-12T11:37:10.701Z,14.1
2018-07-12T11:47:09.856Z,14.5
2018-07-12T11:57:09.094Z,14.1
2018-07-12T12:07:08.324Z,14
2018-07-12T12:17:07.557Z,14.5
2018-07-12T12:27:06.791Z,14.6
2018-07-12T12:37:06.030Z,14.1
2018-07-12T12:47:05.260Z,14.3
2018-07-12T12:57:04.492Z,14.2
2018-07-12T13:07:03.731Z,13.8
2018-07-12T13:17:02.962Z,12.9
2018-07-12T13:27:02.199Z,13.2
2018-07-12T13:37:01.436Z,13.1
2018-07-12T13:47:00.678Z,14.7
2018-07-12T13:56:59.901Z,13.4
2018-07-12T14:06:59.186Z,13.6
2018-07-12T14:16:58.368Z,13.4
2018-07-12T14:26:57.598Z,12.6
2018-07-12T14:36:56.833Z,13.2
2018-07-12T14:46:56.071Z,13
2018-07-12T14:56:55.301Z,13.2
2018-07-12T15:06:54.547Z,12.7
2018-07-12T15:16:53.842Z,13.2
2018-07-12T15:26:53.007Z,13
2018-07-12T15:36:52.244Z,13.1
2018-07-12T15:46:51.481Z,13
2018-07-12T15:56:50.720Z,13.1
2018-07-12T16:06:49.959Z,12.9
2018-07-12T16:16:49.189Z,12.8
2018-07-12T16:26:48.428Z,13.1
2018-07-12T16:36:47.665Z,12.9
2018-07-12T16:46:46.900Z,12.6
2018-07-12T16:56:46.138Z,12.7
2018-07-12T17:06:45.375Z,12.6
2018-07-12T17:16:44.613Z,12.5
2018-07-12T17:26:43.850Z,12.9
2018-07-12T17:36:43.088Z,13.1
2018-07-12T17:46:42.326Z,12.9
2018-07-12T17:56:41.563Z,12.6
2018-07-12T18:06:40.810Z,13.1
2018-07-12T18:16:40.042Z,12.8
2018-07-12T18:26:39.279Z,12.4
2018-07-12T18:36:38.521Z,13.1
2018-07-12T18:46:37.756Z,12.4
2018-07-12T18:56:36.996Z,12.9
2018-07-12T19:06:36.233Z,13.2
2018-07-12T19:16:35.472Z,13.1
2018-07-12T19:26:34.752Z,12.8
2018-07-12T19:36:33.951Z,12.9
2018-07-12T19:46:33.209Z,13.1
2018-07-12T19:56:32.427Z,13
2018-07-12T20:06:31.671Z,13.1
2018-07-12T20:16:30.913Z,12.6
2018-07-12T20:26:30.142Z,12.7
2018-07-12T20:36:29.387Z,12.7
2018-07-12T20:46:28.619Z,12.6
2018-07-12T20:56:27.856Z,12.8
2018-07-12T21:06:27.095Z,12.8
2018-07-12T21:16:26.388Z,12.6
2018-07-12T21:26:25.569Z,13
2018-07-12T21:36:24.818Z,12.4
2018-07-12T21:46:24.043Z,12.8
2018-07-12T21:56:23.279Z,13
2018-07-12T22:06:22.515Z,12.5
2018-07-12T22:16:21.752Z,12.9
2018-07-12T22:26:21.005Z,12.5
2018-07-12T22:36:20.227Z,12.4
2018-07-12T22:46:19.463Z,12.7
2018-07-12T22:56:18.697Z,13.1
2018-07-12T23:06:17.935Z,12.5
2018-07-12T23:16:17.170Z,13.2
2018-07-12T23:26:16.410Z,12.4
2018-07-12T23:36:15.645Z,12.7
2018-07-12T23:46:14.879Z,13.1
2018-07-12T23:56:14.112Z,12.5
